Terminal Aerodrome Forecast
Issued by NWS Charleston, SC

Home | Current Version | Previous Version | Text Only | Print | Product List | Glossary On
Versions: 1 2 3 4 5 6 7 8 9 10 11 12 13 14
000
FTUS42 KCHS 290535
TAFSAV
TAF
KSAV 290535Z 2906/3006 00000KT P6SM FEW250
     FM291400 09005KT P6SM SCT250
     FM291700 16007KT P6SM SCT250
     FM300400 22008KT P6SM BKN150=

USA.gov is the U.S. government's official web portal to all federal, state and local government web resources and services.